createdAt,value
2023-06-04T00:01:18.765Z,98706.19
2023-06-04T00:04:04.097Z,98706.25
2023-06-04T00:06:49.318Z,98703.22
2023-06-04T00:09:34.598Z,98700.53
2023-06-04T00:12:20.147Z,98696.25
2023-06-04T00:15:06.390Z,98694.06
2023-06-04T00:17:51.918Z,98694.44
2023-06-04T00:20:37.170Z,98642.59
2023-06-04T00:23:23.370Z,98695.97
2023-06-04T00:26:08.789Z,98667.25
2023-06-04T00:28:57.082Z,98638.19
2023-06-04T00:31:43.577Z,98692.19
2023-06-04T00:34:29.024Z,98696.63
2023-06-04T00:37:14.344Z,98668.94
2023-06-04T00:40:00.294Z,98692.91
2023-06-04T00:42:45.789Z,98689.44
2023-06-04T00:45:31.168Z,98687.84
2023-06-04T00:48:16.283Z,98683.47
2023-06-04T00:51:01.709Z,98689.31
2023-06-04T00:53:47.584Z,98675.22
2023-06-04T00:56:32.731Z,98686.44
2023-06-04T00:59:18.111Z,98693.22
2023-06-04T01:02:06.079Z,98640.69
2023-06-04T01:04:54.240Z,98692.78
2023-06-04T01:07:40.692Z,98691.47
2023-06-04T01:10:27.160Z,98674.41
2023-06-04T01:13:12.460Z,98652.41
2023-06-04T01:15:57.914Z,98684.94
2023-06-04T01:18:43.432Z,98694.44
2023-06-04T01:21:31.555Z,98691.03
2023-06-04T01:24:17.136Z,98701.72
2023-06-04T01:27:03.847Z,98694.00
2023-06-04T01:29:49.616Z,98693.66
2023-06-04T01:32:35.555Z,98694.81
2023-06-04T01:35:21.685Z,98687.75
2023-06-04T01:38:07.555Z,98635.22
2023-06-04T01:40:53.115Z,98667.22
2023-06-04T01:43:38.611Z,98652.63
2023-06-04T01:46:23.922Z,98695.84
2023-06-04T01:49:09.402Z,98701.44
2023-06-04T01:51:54.998Z,98695.50
2023-06-04T01:54:40.373Z,98689.91
2023-06-04T01:57:25.710Z,98691.91
2023-06-04T02:00:12.649Z,98705.00
2023-06-04T02:02:58.444Z,98701.06
2023-06-04T02:05:44.057Z,98699.44
2023-06-04T02:08:29.171Z,98695.69
2023-06-04T02:11:14.448Z,98698.63
2023-06-04T02:13:59.816Z,98706.69
2023-06-04T02:16:45.064Z,98706.50
2023-06-04T02:19:30.072Z,98678.09
2023-06-04T02:22:15.491Z,98702.06
2023-06-04T02:25:01.038Z,98702.41
2023-06-04T02:27:46.596Z,98708.31
2023-06-04T02:30:31.870Z,98648.03
2023-06-04T02:33:17.271Z,98708.28
2023-06-04T02:36:02.584Z,98710.19
2023-06-04T02:38:47.768Z,98705.19
2023-06-04T02:41:32.879Z,98714.13
2023-06-04T02:44:18.321Z,98711.34
2023-06-04T02:47:03.363Z,98696.66
2023-06-04T02:49:48.700Z,98712.63
2023-06-04T02:52:34.213Z,98717.09
2023-06-04T02:55:19.374Z,98687.28
2023-06-04T02:58:04.797Z,98715.94
2023-06-04T03:00:50.040Z,98713.44
2023-06-04T03:03:36.738Z,98724.06
2023-06-04T03:06:23.001Z,98732.91
2023-06-04T03:09:08.249Z,98738.47
2023-06-04T03:11:55.253Z,98737.91
2023-06-04T03:14:40.381Z,98739.88
2023-06-04T03:17:27.170Z,98727.28
2023-06-04T03:20:12.271Z,98727.28
2023-06-04T03:22:57.736Z,98721.22
2023-06-04T03:25:42.920Z,98726.34
2023-06-04T03:28:28.489Z,98729.28
2023-06-04T03:31:13.841Z,98731.41
2023-06-04T03:33:59.328Z,98667.69
2023-06-04T03:36:44.696Z,98735.09
2023-06-04T03:39:30.262Z,98740.13
2023-06-04T03:42:16.721Z,98715.03
2023-06-04T03:45:02.437Z,98745.50
2023-06-04T03:47:48.755Z,98747.06
2023-06-04T03:50:34.087Z,98753.19
2023-06-04T03:53:19.859Z,98750.91
2023-06-04T03:56:05.387Z,98750.03
2023-06-04T03:58:51.290Z,98739.97
2023-06-04T04:01:36.989Z,98733.03
2023-06-04T04:04:22.478Z,98744.22
2023-06-04T04:07:08.179Z,98750.34
2023-06-04T04:09:53.735Z,98728.19
2023-06-04T04:12:39.842Z,98746.44
2023-06-04T04:15:25.969Z,98745.78
2023-06-04T04:18:12.736Z,98689.75
2023-06-04T04:20:59.217Z,98731.81
2023-06-04T04:23:46.384Z,98734.50
2023-06-04T04:26:31.582Z,98743.09
2023-06-04T04:29:17.960Z,98738.53
2023-06-04T04:32:03.674Z,98739.44
2023-06-04T04:34:55.451Z,98738.06
2023-06-04T04:37:46.420Z,98732.25
2023-06-04T04:40:34.694Z,98733.09
2023-06-04T04:43:32.984Z,98737.38
2023-06-04T04:46:23.477Z,98690.53
2023-06-04T04:49:09.862Z,98735.38
2023-06-04T04:51:55.426Z,98726.31
2023-06-04T04:54:40.856Z,98737.69
2023-06-04T04:57:26.578Z,98728.13
2023-06-04T05:00:14.021Z,98736.06
2023-06-04T05:03:02.230Z,98735.59
2023-06-04T05:05:47.592Z,98736.13
2023-06-04T05:08:33.326Z,98734.94
2023-06-04T05:11:18.455Z,98731.66
2023-06-04T05:14:05.629Z,98733.13
2023-06-04T05:16:51.251Z,98733.13
2023-06-04T05:19:38.120Z,98734.78
2023-06-04T05:22:23.687Z,98739.81
2023-06-04T05:25:09.529Z,98739.19
2023-06-04T05:27:57.604Z,98749.03
2023-06-04T05:30:43.386Z,98743.34
2023-06-04T05:33:31.992Z,98744.91
2023-06-04T05:36:21.516Z,98744.34
2023-06-04T05:39:12.920Z,98754.84
2023-06-04T05:42:08.476Z,98751.69
2023-06-04T05:44:54.104Z,98754.69
2023-06-04T05:47:41.653Z,98758.06
2023-06-04T05:50:27.203Z,98713.75
2023-06-04T05:53:12.831Z,98759.13
2023-06-04T05:55:58.393Z,98763.88
2023-06-04T05:58:43.799Z,98674.44
2023-06-04T06:01:30.921Z,98721.91
2023-06-04T06:04:16.548Z,98761.00
2023-06-04T06:07:02.858Z,98759.59
2023-06-04T06:09:48.606Z,98768.16
2023-06-04T06:12:33.988Z,98755.09
2023-06-04T06:15:19.475Z,98765.31
2023-06-04T06:18:07.527Z,98759.56
2023-06-04T06:20:52.913Z,98771.81
2023-06-04T06:23:38.656Z,98775.41
2023-06-04T06:26:24.850Z,98774.09
2023-06-04T06:29:13.560Z,98773.25
2023-06-04T06:31:59.107Z,98746.25
2023-06-04T06:34:44.262Z,98778.78
2023-06-04T06:37:29.330Z,98775.50
2023-06-04T06:40:14.580Z,98788.88
2023-06-04T06:43:00.031Z,98794.28
2023-06-04T06:45:45.793Z,98763.41
2023-06-04T06:48:31.296Z,98786.88
2023-06-04T06:51:16.689Z,98800.50
2023-06-04T06:54:01.982Z,98797.16
2023-06-04T06:56:47.039Z,98741.44
2023-06-04T06:59:32.229Z,98798.34
2023-06-04T07:02:17.615Z,98732.94
2023-06-04T07:05:03.353Z,98745.53
2023-06-04T07:07:49.851Z,98794.25
2023-06-04T07:10:35.027Z,98770.06
2023-06-04T07:13:20.587Z,98797.44
2023-06-04T07:16:05.997Z,98797.88
2023-06-04T07:18:51.533Z,98797.97
2023-06-04T07:21:37.214Z,98798.25
2023-06-04T07:24:22.774Z,98797.53
2023-06-04T07:27:15.212Z,98801.53
2023-06-04T07:30:00.402Z,98766.19
2023-06-04T07:32:49.162Z,98801.94
2023-06-04T07:35:34.208Z,98705.84
2023-06-04T07:38:19.811Z,98804.47
2023-06-04T07:41:05.513Z,98802.00
2023-06-04T07:43:50.919Z,98797.66
2023-06-04T07:46:36.250Z,98800.09
2023-06-04T07:49:21.624Z,98807.28
2023-06-04T07:52:07.030Z,98810.25
2023-06-04T07:54:52.293Z,98802.28
2023-06-04T07:57:37.460Z,98799.84
2023-06-04T08:00:22.687Z,98799.16
2023-06-04T08:03:08.102Z,98807.16
2023-06-04T08:05:53.607Z,98803.13
2023-06-04T08:08:39.215Z,98801.47
2023-06-04T08:11:24.938Z,98761.94
2023-06-04T08:14:13.707Z,98777.84
2023-06-04T08:16:59.284Z,98802.03
2023-06-04T08:19:44.856Z,98792.97
2023-06-04T08:22:30.016Z,98798.56
2023-06-04T08:25:15.301Z,98799.00
2023-06-04T08:28:00.486Z,98790.13
2023-06-04T08:30:45.931Z,98802.38
2023-06-04T08:33:31.464Z,98794.41
2023-06-04T08:36:16.641Z,98796.94
2023-06-04T08:39:02.478Z,98806.69
2023-06-04T08:41:52.160Z,98751.50
2023-06-04T08:44:37.303Z,98810.25
2023-06-04T08:47:26.139Z,98816.91
2023-06-04T08:50:13.185Z,98770.16
2023-06-04T08:52:58.856Z,98770.56
2023-06-04T08:55:43.963Z,98805.13
2023-06-04T08:58:34.204Z,98805.78
2023-06-04T09:01:19.689Z,98806.00
2023-06-04T09:04:07.578Z,98811.63
2023-06-04T09:06:55.458Z,98810.28
2023-06-04T09:09:42.950Z,98803.78
2023-06-04T09:12:30.594Z,98756.06
2023-06-04T09:15:16.708Z,98810.25
2023-06-04T09:18:02.294Z,98810.03
2023-06-04T09:20:47.461Z,98801.25
2023-06-04T09:23:51.161Z,98774.69
2023-06-04T09:26:36.471Z,98737.09
2023-06-04T09:29:21.541Z,98794.66
2023-06-04T09:32:06.703Z,98774.06
2023-06-04T09:34:52.261Z,98804.88
2023-06-04T09:37:37.614Z,98805.47
2023-06-04T09:40:23.956Z,98801.66
2023-06-04T09:43:11.776Z,98768.47
2023-06-04T09:45:57.400Z,98783.69
2023-06-04T09:48:43.738Z,98814.78
2023-06-04T09:51:29.750Z,98780.16
2023-06-04T09:54:15.394Z,98821.31
2023-06-04T09:57:00.800Z,98811.69
2023-06-04T09:59:47.813Z,98802.28
2023-06-04T10:02:33.200Z,98811.91
2023-06-04T10:05:18.947Z,98808.75
2023-06-04T10:08:05.048Z,98811.47
2023-06-04T10:10:55.740Z,98809.22
2023-06-04T10:14:08.979Z,98742.06
2023-06-04T10:16:57.922Z,98807.88
2023-06-04T10:19:44.976Z,98803.41
2023-06-04T10:22:31.270Z,98808.25
2023-06-04T10:25:17.944Z,98775.09
2023-06-04T10:28:03.511Z,98802.03
2023-06-04T10:30:49.447Z,98810.66
2023-06-04T10:33:34.563Z,98808.25
2023-06-04T10:36:22.391Z,98801.72
2023-06-04T10:39:07.653Z,98807.09
2023-06-04T10:42:03.528Z,98789.59
2023-06-04T10:44:51.290Z,98810.00
2023-06-04T10:47:36.991Z,98793.53
2023-06-04T10:50:23.223Z,98800.59
2023-06-04T10:53:09.545Z,98763.81
2023-06-04T10:55:55.077Z,98793.16
2023-06-04T10:58:40.286Z,98798.78
2023-06-04T11:01:31.285Z,98645.47
2023-06-04T11:04:27.213Z,98790.50
2023-06-04T11:07:12.553Z,98795.63
2023-06-04T11:09:57.740Z,98784.06
2023-06-04T11:12:48.342Z,98778.47
2023-06-04T11:15:43.107Z,98774.16
2023-06-04T11:18:28.301Z,98780.34
2023-06-04T11:21:13.756Z,98777.63
2023-06-04T11:23:59.624Z,98779.31
2023-06-04T11:26:50.753Z,98780.97
2023-06-04T11:29:42.253Z,98771.53
2023-06-04T11:32:27.580Z,98774.56
2023-06-04T11:35:12.967Z,98770.91
2023-06-04T11:37:59.493Z,98777.53
2023-06-04T11:40:45.069Z,98773.56
2023-06-04T11:43:30.533Z,98782.28
2023-06-04T11:46:16.108Z,98768.66
2023-06-04T11:49:03.342Z,98771.44
2023-06-04T11:51:50.953Z,98760.28
2023-06-04T11:54:37.175Z,98766.47
2023-06-04T11:57:23.023Z,98771.53
2023-06-04T12:00:09.844Z,98774.50
2023-06-04T12:02:57.218Z,98774.19
2023-06-04T12:05:42.498Z,98763.75
2023-06-04T12:08:27.463Z,98760.34
2023-06-04T12:11:33.248Z,98728.38
2023-06-04T12:14:19.400Z,98714.91
2023-06-04T12:17:09.219Z,98763.50
2023-06-04T12:19:54.468Z,98756.84
2023-06-04T12:22:46.792Z,98757.69
2023-06-04T12:25:34.863Z,98755.63
2023-06-04T12:28:20.689Z,98756.44
2023-06-04T12:31:16.831Z,98756.75
2023-06-04T12:34:02.441Z,98758.25
2023-06-04T12:36:47.981Z,98752.75
2023-06-04T12:39:37.236Z,98755.84
2023-06-04T12:42:24.179Z,98755.09
2023-06-04T12:45:11.246Z,98757.63
2023-06-04T12:47:56.537Z,98747.44
2023-06-04T12:50:42.431Z,98741.28
2023-06-04T12:53:27.687Z,98748.31
2023-06-04T12:56:13.143Z,98751.31
2023-06-04T12:58:58.471Z,98750.28
2023-06-04T13:01:43.904Z,98760.78
2023-06-04T13:04:29.301Z,98743.72
2023-06-04T13:07:14.586Z,98746.56
2023-06-04T13:09:59.734Z,98747.28
2023-06-04T13:12:44.902Z,98748.00
2023-06-04T13:15:30.251Z,98749.75
2023-06-04T13:18:15.415Z,98738.75
2023-06-04T13:21:00.996Z,98741.56
2023-06-04T13:23:50.607Z,98747.50
2023-06-04T13:26:36.771Z,98698.91
2023-06-04T13:29:22.055Z,98742.78
2023-06-04T13:32:07.555Z,98738.75
2023-06-04T13:34:52.840Z,98739.94
2023-06-04T13:37:37.992Z,98732.09
2023-06-04T13:40:23.747Z,98730.41
2023-06-04T13:43:09.028Z,98735.22
2023-06-04T13:45:54.424Z,98727.41
2023-06-04T13:48:39.727Z,98726.53
2023-06-04T13:51:25.229Z,98721.84
2023-06-04T13:54:12.582Z,98718.09
2023-06-04T13:56:58.752Z,98722.88
2023-06-04T13:59:44.004Z,98697.56
2023-06-04T14:02:29.510Z,98728.28
2023-06-04T14:05:14.718Z,98727.41
2023-06-04T14:08:00.049Z,98723.50
2023-06-04T14:10:53.690Z,98723.06
2023-06-04T14:13:39.409Z,98697.25
2023-06-04T14:16:24.668Z,98717.72
2023-06-04T14:19:10.356Z,98714.31
2023-06-04T14:21:56.030Z,98711.47
2023-06-04T14:24:42.274Z,98680.88
2023-06-04T14:27:27.551Z,98690.63
2023-06-04T14:30:13.265Z,98700.53
2023-06-04T14:32:59.050Z,98697.56
2023-06-04T14:35:44.422Z,98698.84
2023-06-04T14:38:30.064Z,98697.09
2023-06-04T14:41:16.802Z,98684.63
2023-06-04T14:44:02.188Z,98694.78
2023-06-04T14:46:47.800Z,98694.06
2023-06-04T14:49:33.145Z,98688.09
2023-06-04T14:52:18.612Z,98691.91
2023-06-04T14:55:04.186Z,98686.16
2023-06-04T14:57:51.514Z,98639.56
2023-06-04T15:00:36.826Z,98685.16
2023-06-04T15:03:22.467Z,98678.06
2023-06-04T15:06:18.775Z,98659.38
2023-06-04T15:09:05.830Z,98674.84
2023-06-04T15:11:51.338Z,98676.59
2023-06-04T15:14:36.581Z,98667.47
2023-06-04T15:17:21.662Z,98569.09
2023-06-04T15:20:07.723Z,98621.66
2023-06-04T15:22:53.320Z,98670.25
2023-06-04T15:25:38.832Z,98674.84
2023-06-04T15:28:24.523Z,98666.78
2023-06-04T15:31:09.767Z,98665.41
2023-06-04T15:33:55.341Z,98660.72
2023-06-04T15:36:40.602Z,98672.03
2023-06-04T15:39:25.829Z,98659.91
2023-06-04T15:42:11.554Z,98669.69
2023-06-04T15:44:56.903Z,98614.78
2023-06-04T15:47:42.332Z,98669.97
2023-06-04T15:50:27.999Z,98668.81
2023-06-04T15:53:13.515Z,98626.88
2023-06-04T15:55:59.081Z,98662.41
2023-06-04T15:58:45.123Z,98665.91
2023-06-04T16:01:30.638Z,98659.25
2023-06-04T16:04:16.122Z,98644.50
2023-06-04T16:07:01.473Z,98599.13
2023-06-04T16:09:46.838Z,98655.88
2023-06-04T16:12:31.967Z,98658.00
2023-06-04T16:15:17.473Z,98665.97
2023-06-04T16:18:03.178Z,98657.75
2023-06-04T16:20:48.751Z,98658.81
2023-06-04T16:23:34.175Z,98654.28
2023-06-04T16:26:20.065Z,98655.56
2023-06-04T16:29:05.554Z,98647.59
2023-06-04T16:31:51.024Z,98559.00
2023-06-04T16:34:36.153Z,98650.28
2023-06-04T16:37:21.398Z,98643.41
2023-06-04T16:40:06.957Z,98639.00
2023-06-04T16:42:52.340Z,98605.38
2023-06-04T16:45:37.727Z,98646.06
2023-06-04T16:48:23.080Z,98642.91
2023-06-04T16:51:08.501Z,98639.50
2023-06-04T16:53:54.995Z,98644.75
2023-06-04T16:56:40.400Z,98643.72
2023-06-04T16:59:26.108Z,98644.94
2023-06-04T17:02:11.515Z,98639.16
2023-06-04T17:04:56.796Z,98663.47
2023-06-04T17:07:42.024Z,98653.78
2023-06-04T17:10:31.659Z,98650.72
2023-06-04T17:13:17.224Z,98653.69
2023-06-04T17:16:02.662Z,98649.47
2023-06-04T17:18:47.991Z,98651.28
2023-06-04T17:21:33.192Z,98637.31
2023-06-04T17:24:18.544Z,98647.38
2023-06-04T17:27:04.451Z,98654.91
2023-06-04T17:29:50.033Z,98649.56
2023-06-04T17:32:35.195Z,98632.53
2023-06-04T17:35:20.363Z,98652.66
2023-06-04T17:38:06.187Z,98607.56
2023-06-04T17:40:51.462Z,98651.75
2023-06-04T17:43:36.855Z,98650.69
2023-06-04T17:46:22.178Z,98661.97
2023-06-04T17:49:07.858Z,98657.34
2023-06-04T17:51:53.053Z,98663.03
2023-06-04T17:54:38.237Z,98628.56
2023-06-04T17:57:23.631Z,98525.13
2023-06-04T18:00:10.176Z,98659.44
2023-06-04T18:02:58.602Z,98662.47
2023-06-04T18:05:43.833Z,98654.34
2023-06-04T18:08:29.323Z,98667.34
2023-06-04T18:11:14.594Z,98669.56
2023-06-04T18:13:59.828Z,98665.13
2023-06-04T18:16:45.073Z,98617.09
2023-06-04T18:19:30.362Z,98671.63
2023-06-04T18:22:15.736Z,98659.31
2023-06-04T18:25:02.077Z,98670.84
2023-06-04T18:27:47.992Z,98677.69
2023-06-04T18:30:33.119Z,98673.19
2023-06-04T18:33:18.469Z,98679.91
2023-06-04T18:36:04.146Z,98680.03
2023-06-04T18:38:49.266Z,98683.22
2023-06-04T18:41:34.428Z,98683.31
2023-06-04T18:44:19.823Z,98653.53
2023-06-04T18:47:05.611Z,98682.94
2023-06-04T18:49:50.997Z,98678.03
2023-06-04T18:52:36.554Z,98678.69
2023-06-04T18:55:22.353Z,98682.09
2023-06-04T18:58:07.728Z,98683.41
2023-06-04T19:00:53.095Z,98690.91
2023-06-04T19:03:38.370Z,98682.44
2023-06-04T19:06:23.703Z,98683.63
2023-06-04T19:09:09.273Z,98685.84
2023-06-04T19:11:54.814Z,98688.88
2023-06-04T19:14:40.162Z,98696.41
2023-06-04T19:17:25.601Z,98708.44
2023-06-04T19:20:11.280Z,98704.41
2023-06-04T19:22:56.796Z,98704.88
2023-06-04T19:25:42.148Z,98702.63
2023-06-04T19:28:27.896Z,98698.69
2023-06-04T19:31:13.031Z,98693.72
2023-06-04T19:33:58.251Z,98702.69
2023-06-04T19:36:43.488Z,98703.97
2023-06-04T19:39:28.677Z,98706.69
2023-06-04T19:42:13.746Z,98682.09
2023-06-04T19:44:59.529Z,98717.34
2023-06-04T19:47:44.882Z,98716.88
2023-06-04T19:50:30.571Z,98714.56
2023-06-04T19:53:15.851Z,98707.31
2023-06-04T19:56:01.455Z,98714.88
2023-06-04T19:58:46.855Z,98724.06
2023-06-04T20:01:32.445Z,98692.25
2023-06-04T20:04:17.825Z,98727.41
2023-06-04T20:07:05.849Z,98718.22
2023-06-04T20:09:51.111Z,98726.44
2023-06-04T20:12:36.314Z,98717.94
2023-06-04T20:15:21.839Z,98727.91
2023-06-04T20:18:07.291Z,98716.94
2023-06-04T20:20:52.785Z,98730.13
2023-06-04T20:23:38.068Z,98725.66
2023-06-04T20:26:23.341Z,98740.06
2023-06-04T20:29:08.755Z,98737.53
2023-06-04T20:31:54.672Z,98672.31
2023-06-04T20:34:39.993Z,98739.41
2023-06-04T20:37:25.139Z,98735.88
2023-06-04T20:40:10.456Z,98738.00
2023-06-04T20:42:56.283Z,98740.72
2023-06-04T20:45:41.450Z,98749.53
2023-06-04T20:48:26.698Z,98746.88
2023-06-04T20:51:13.367Z,98674.88
2023-06-04T20:53:58.877Z,98757.53
2023-06-04T20:56:44.344Z,98745.94
2023-06-04T20:59:29.624Z,98747.53
2023-06-04T21:02:15.486Z,98743.31
2023-06-04T21:05:01.093Z,98747.59
2023-06-04T21:07:46.205Z,98673.38
2023-06-04T21:10:31.516Z,98744.66
2023-06-04T21:13:16.729Z,98748.38
2023-06-04T21:16:02.223Z,98754.44
2023-06-04T21:18:47.600Z,98750.91
2023-06-04T21:21:32.753Z,98749.53
2023-06-04T21:24:18.049Z,98701.94
2023-06-04T21:27:03.487Z,98749.34
2023-06-04T21:29:48.824Z,98747.25
2023-06-04T21:32:33.951Z,98744.16
2023-06-04T21:35:19.446Z,98751.63
2023-06-04T21:38:04.782Z,98757.25
2023-06-04T21:40:50.339Z,98756.03
2023-06-04T21:43:35.774Z,98762.78
2023-06-04T21:46:21.521Z,98750.22
2023-06-04T21:49:06.835Z,98764.06
2023-06-04T21:51:52.922Z,98758.81
2023-06-04T21:54:38.818Z,98760.47
2023-06-04T21:57:24.088Z,98766.75
2023-06-04T22:00:09.640Z,98761.28
2023-06-04T22:03:01.165Z,98702.78
2023-06-04T22:05:46.669Z,98755.38
2023-06-04T22:08:32.226Z,98757.03
2023-06-04T22:11:17.286Z,98754.25
2023-06-04T22:14:02.995Z,98760.25
2023-06-04T22:16:47.863Z,98762.13
2023-06-04T22:19:33.305Z,98760.09
2023-06-04T22:22:18.573Z,98758.19
2023-06-04T22:25:04.300Z,98758.44
2023-06-04T22:27:50.168Z,98723.63
2023-06-04T22:30:35.317Z,98760.59
2023-06-04T22:33:20.430Z,98765.53
2023-06-04T22:36:06.114Z,98769.09
2023-06-04T22:38:51.305Z,98764.19
2023-06-04T22:41:36.463Z,98760.56
2023-06-04T22:44:21.973Z,98764.41
2023-06-04T22:47:08.297Z,98732.47
2023-06-04T22:49:56.559Z,98770.81
2023-06-04T22:52:41.732Z,98751.59
2023-06-04T22:55:27.214Z,98757.44
2023-06-04T22:58:13.323Z,98762.00
2023-06-04T23:00:58.841Z,98765.28
2023-06-04T23:03:44.580Z,98768.25
2023-06-04T23:06:29.728Z,98767.91
2023-06-04T23:09:15.014Z,98765.00
2023-06-04T23:12:00.333Z,98758.19
2023-06-04T23:14:46.348Z,98754.88
2023-06-04T23:17:31.426Z,98758.34
2023-06-04T23:20:17.595Z,98765.66
2023-06-04T23:23:03.275Z,98752.81
2023-06-04T23:25:48.783Z,98752.22
2023-06-04T23:28:34.151Z,98760.91
2023-06-04T23:31:19.634Z,98762.53
2023-06-04T23:34:05.412Z,98759.97
2023-06-04T23:36:50.707Z,98764.63
2023-06-04T23:39:36.124Z,98762.06
2023-06-04T23:42:21.490Z,98755.59
2023-06-04T23:45:07.401Z,98762.00
2023-06-04T23:47:53.426Z,98762.94
2023-06-04T23:50:38.677Z,98753.38
2023-06-04T23:53:49.415Z,98751.97
2023-06-04T23:56:34.434Z,98758.34
2023-06-04T23:59:19.850Z,98752.81
